• Join FlightAware (Why Join?)
  • Login
  • US Flag 
09:37AM EDT


 

Airport Tracker/Info


-or-


 

Live Flight TrackerFlight Track Log ✈ RLI811 ✈ 06-Sep-2013 ✈ KACK - KDXR

Flight Track Log - Related Links

Times and Time Zones

All times are in EDT time to prevent confusion due to time zone crossing. See the RLI811 flight status page for this flight to view local times or setup timezone preferences in your user account.

Time Position Orientation Groundspeed Altitude Reporting Facility
EDT Latitude Longitude Course Direction KTS MPH feet Rate Location/Type
09:53AM 41.3769 -72.2408 268° West 189 217 6,500  Level Boston Center
09:54AM 41.3750 -72.3044 268° West 190 219 6,500  Level Boston Center
09:55AM 41.3750 -72.3792 270° West 188 216 6,500  Level Boston Center
09:56AM 41.3772 -72.4483 272° West 185 213 6,500  Level Boston Center
09:57AM 41.3772 -72.5231 270° West 188 216 6,500 -240 Level Boston Center
09:59AM 41.3708 -72.6300 265° West  Level FlightAware Approximate
10:04AM 41.3667 -73.0000 275° West 190 219 4,800  Level New York TRACON
10:06AM 41.3500 -73.0910 270° West  Level FlightAware Approximate
10:06AM 41.3472 -73.1165 258° West  Level FlightAware Approximate
10:07AM 41.3524 -73.1566 275° West  Level FlightAware Approximate
10:07AM 41.3667 -73.2000 258° West 191 220 3,400  Level New York TRACON
10:08AM 41.3563 -73.2221 275° West  Level FlightAware Approximate
10:09AM 41.3667 -73.3193 270° West  Level FlightAware Approximate
10:09AM 41.3601 -73.2876 275° West  Level FlightAware Approximate
10:16AM 41.3667 -73.4667 270° West  Level FlightAware Approximate
10:17AM 41.3715 -73.4822 270° West  Level Estimated
10:18AM 41.3715 -73.4822 270° West  Level Estimated
10:19AM 41.3715 -73.4822 270° West  Level Estimated
10:20AM 41.3715 -73.4822 270° West  Level Estimated
10:21AM 41.3715 -73.4822 270° West  Level Estimated
10:22AM 41.3715 -73.4822 270° West  Level Estimated
10:23AM 41.3715 -73.4822 270° West  Level Estimated
10:24AM 41.3715 -73.4822 270° West  Level Estimated
10:25AM 41.3715 -73.4822 270° West  Level Estimated
10:26AM 41.3715 -73.4822 270° West  Level Estimated
10:27AM 41.3715 -73.4822 270° West  Level Estimated
10:28AM 41.3715 -73.4822 270° West  Level Estimated
10:29AM 41.3715 -73.4822 270° West  Level Estimated
10:30AM 41.3715 -73.4822 270° West  Level Estimated
10:31AM 41.3715 -73.4822 270° West  Level Estimated
10:32AM 41.3715 -73.4822 270° West  Level Estimated
10:33AM 41.3715 -73.4822 270° West  Level Estimated